createdAt,value
2019-03-28T00:01:49.925Z,86.87
2019-03-28T00:04:21.198Z,87.20
2019-03-28T00:06:52.205Z,87.61
2019-03-28T00:09:23.250Z,86.92
2019-03-28T00:11:54.267Z,86.45
2019-03-28T00:14:25.255Z,86.74
2019-03-28T00:16:56.229Z,86.58
2019-03-28T00:19:27.258Z,86.73
2019-03-28T00:21:58.442Z,86.47
2019-03-28T00:24:37.281Z,86.29
2019-03-28T00:27:08.263Z,86.36
2019-03-28T00:29:39.294Z,86.00
2019-03-28T00:32:11.042Z,86.03
2019-03-28T00:34:42.014Z,85.93
2019-03-28T00:37:13.789Z,86.10
2019-03-28T00:39:45.205Z,85.87
2019-03-28T00:42:16.226Z,86.08
2019-03-28T00:44:47.201Z,86.48
2019-03-28T00:47:18.536Z,87.01
2019-03-28T00:49:49.537Z,87.16
2019-03-28T00:52:20.543Z,87.15
2019-03-28T00:54:51.518Z,87.22
2019-03-28T00:57:22.647Z,87.40
2019-03-28T00:59:53.612Z,87.18
2019-03-28T01:02:24.637Z,87.02
2019-03-28T01:04:55.658Z,86.92
2019-03-28T01:07:26.634Z,86.84
2019-03-28T01:09:57.665Z,86.91
2019-03-28T01:12:28.686Z,86.90
2019-03-28T01:14:59.660Z,87.02
2019-03-28T01:17:30.793Z,87.12
2019-03-28T01:20:01.789Z,86.56
2019-03-28T01:22:32.760Z,86.56
2019-03-28T01:25:03.783Z,86.30
2019-03-28T01:27:34.781Z,86.11
2019-03-28T01:30:06.828Z,85.93
2019-03-28T01:32:37.827Z,86.34
2019-03-28T01:35:09.055Z,86.81
2019-03-28T01:37:40.082Z,86.87
2019-03-28T01:40:11.043Z,86.95
2019-03-28T01:42:42.410Z,87.08
2019-03-28T01:45:13.977Z,87.01
2019-03-28T01:47:44.994Z,87.07
2019-03-28T01:50:15.966Z,87.05
2019-03-28T01:52:47.347Z,86.90
2019-03-28T01:55:18.617Z,87.15
2019-03-28T01:57:49.606Z,87.81
2019-03-28T02:00:20.583Z,87.65
2019-03-28T02:02:51.606Z,87.76
2019-03-28T02:05:22.672Z,88.10
2019-03-28T02:07:53.646Z,88.21
2019-03-28T02:10:31.886Z,88.14
2019-03-28T02:13:02.876Z,88.10
2019-03-28T02:15:33.892Z,88.29
2019-03-28T02:18:05.094Z,88.20
2019-03-28T02:20:36.483Z,88.54
2019-03-28T02:23:07.466Z,88.12
2019-03-28T02:25:38.588Z,87.92
2019-03-28T02:28:09.985Z,88.40
2019-03-28T02:30:41.004Z,88.36
2019-03-28T02:33:12.086Z,88.61
2019-03-28T02:35:43.127Z,88.86
2019-03-28T02:38:14.157Z,89.04
2019-03-28T02:40:46.116Z,89.40
2019-03-28T02:43:17.104Z,89.22
2019-03-28T02:45:48.195Z,89.30
2019-03-28T02:48:19.369Z,89.53
2019-03-28T02:50:50.356Z,89.58
2019-03-28T02:53:21.466Z,89.97
2019-03-28T02:55:52.451Z,90.03
2019-03-28T02:58:23.636Z,90.09
2019-03-28T03:00:55.497Z,89.95
2019-03-28T03:03:27.524Z,89.85
2019-03-28T03:05:59.870Z,89.95
2019-03-28T03:08:30.860Z,89.94
2019-03-28T03:11:02.390Z,89.93
2019-03-28T03:13:34.002Z,90.20
2019-03-28T03:16:05.036Z,89.95
2019-03-28T03:18:36.418Z,89.89
2019-03-28T03:21:07.451Z,90.50
2019-03-28T03:23:38.813Z,89.85
2019-03-28T03:26:11.075Z,89.87
2019-03-28T03:28:42.995Z,90.17
2019-03-28T03:31:20.287Z,90.20
2019-03-28T03:33:46.665Z,89.90
2019-03-28T03:36:17.733Z,90.61
2019-03-28T03:38:48.722Z,90.77
2019-03-28T03:41:19.747Z,90.39
2019-03-28T03:43:51.047Z,90.78
2019-03-28T03:46:22.458Z,90.11
2019-03-28T03:48:53.486Z,90.85
2019-03-28T03:51:24.470Z,90.96
2019-03-28T03:53:55.483Z,90.81
2019-03-28T03:56:26.502Z,90.18
2019-03-28T03:58:57.823Z,90.84
2019-03-28T04:01:29.077Z,90.69
2019-03-28T04:04:00.087Z,90.85
2019-03-28T04:06:31.071Z,90.78
2019-03-28T04:09:02.054Z,91.03
2019-03-28T04:11:33.450Z,90.86
2019-03-28T04:14:04.547Z,90.89
2019-03-28T04:16:35.580Z,91.05
2019-03-28T04:19:06.900Z,91.00
2019-03-28T04:21:37.992Z,90.80
2019-03-28T04:24:09.658Z,90.90
2019-03-28T04:26:40.675Z,91.18
2019-03-28T04:29:11.796Z,90.96
2019-03-28T04:31:43.142Z,90.88
2019-03-28T04:34:14.122Z,91.02
2019-03-28T04:36:45.110Z,90.92
2019-03-28T04:39:16.652Z,91.10
2019-03-28T04:41:48.230Z,90.79
2019-03-28T04:44:19.579Z,90.91
2019-03-28T04:46:50.617Z,90.72
2019-03-28T04:49:21.607Z,91.08
2019-03-28T04:51:53.397Z,91.20
2019-03-28T04:54:24.470Z,91.20
2019-03-28T04:56:55.822Z,91.43
2019-03-28T04:59:26.835Z,91.59
2019-03-28T05:02:02.930Z,91.95
2019-03-28T05:04:30.577Z,91.82
2019-03-28T05:07:01.552Z,91.57
2019-03-28T05:09:32.557Z,91.70
2019-03-28T05:12:03.627Z,91.97
2019-03-28T05:14:34.609Z,91.86
2019-03-28T05:17:05.638Z,91.84
2019-03-28T05:19:36.623Z,92.18
2019-03-28T05:22:08.201Z,91.40
2019-03-28T05:24:39.207Z,92.17
2019-03-28T05:27:10.200Z,92.39
2019-03-28T05:29:41.319Z,92.01
2019-03-28T05:32:12.417Z,92.45
2019-03-28T05:34:43.405Z,91.92
2019-03-28T05:37:14.410Z,92.05
2019-03-28T05:39:45.536Z,91.83
2019-03-28T05:42:16.859Z,91.88
2019-03-28T05:44:48.278Z,92.14
2019-03-28T05:47:21.938Z,92.40
2019-03-28T05:49:51.934Z,92.81
2019-03-28T05:52:22.957Z,92.98
2019-03-28T05:54:53.938Z,92.78
2019-03-28T05:57:25.132Z,92.94
2019-03-28T05:59:56.109Z,92.75
2019-03-28T06:02:27.522Z,92.96
2019-03-28T06:04:58.950Z,93.17
2019-03-28T06:07:29.937Z,92.68
2019-03-28T06:10:01.311Z,93.06
2019-03-28T06:12:32.356Z,92.90
2019-03-28T06:15:03.333Z,93.04
2019-03-28T06:17:34.646Z,93.13
2019-03-28T06:20:06.999Z,93.08
2019-03-28T06:22:37.978Z,92.99
2019-03-28T06:25:09.469Z,92.81
2019-03-28T06:27:40.467Z,92.90
2019-03-28T06:30:11.742Z,93.12
2019-03-28T06:32:43.650Z,93.31
2019-03-28T06:35:14.663Z,92.32
2019-03-28T06:37:45.672Z,93.15
2019-03-28T06:40:16.701Z,92.57
2019-03-28T06:42:48.358Z,92.58
2019-03-28T06:45:19.350Z,92.29
2019-03-28T06:47:50.359Z,92.55
2019-03-28T06:50:21.738Z,92.62
2019-03-28T06:52:52.759Z,92.64
2019-03-28T06:55:24.220Z,92.00
2019-03-28T06:57:55.605Z,91.67
2019-03-28T07:00:26.662Z,91.63
2019-03-28T07:02:57.997Z,91.18
2019-03-28T07:05:29.071Z,90.81
2019-03-28T07:08:00.051Z,90.19
2019-03-28T07:10:31.083Z,89.67
2019-03-28T07:13:02.073Z,88.31
2019-03-28T07:15:33.057Z,88.73
2019-03-28T07:18:04.079Z,88.72
2019-03-28T07:20:35.062Z,88.51
2019-03-28T07:23:06.054Z,88.25
2019-03-28T07:25:37.062Z,88.29
2019-03-28T07:28:08.190Z,88.38
2019-03-28T07:30:39.519Z,87.75
2019-03-28T07:33:10.507Z,87.99
2019-03-28T07:35:41.928Z,88.19
2019-03-28T07:38:12.910Z,88.32
2019-03-28T07:40:43.899Z,88.16
2019-03-28T07:43:14.930Z,87.81
2019-03-28T07:45:45.907Z,87.61
2019-03-28T07:48:16.956Z,87.93
2019-03-28T07:50:47.969Z,87.12
2019-03-28T07:53:19.979Z,86.74
2019-03-28T07:55:51.494Z,87.30
2019-03-28T07:58:22.486Z,87.83
2019-03-28T08:00:53.513Z,87.56
2019-03-28T08:03:24.974Z,88.48
2019-03-28T08:05:55.956Z,88.34
2019-03-28T08:08:38.251Z,87.98
2019-03-28T08:10:59.660Z,87.42
2019-03-28T08:13:31.051Z,86.87
2019-03-28T08:16:03.269Z,85.99
2019-03-28T08:18:34.351Z,85.14
2019-03-28T08:21:05.385Z,84.10
2019-03-28T08:23:36.405Z,83.99
2019-03-28T08:26:07.500Z,84.53
2019-03-28T08:28:38.823Z,83.05
2019-03-28T08:31:09.818Z,82.27
2019-03-28T08:33:43.315Z,82.34
2019-03-28T08:36:16.280Z,81.96
2019-03-28T08:38:49.789Z,81.98
2019-03-28T08:41:21.454Z,80.56
2019-03-28T08:43:52.555Z,80.12
2019-03-28T08:46:23.577Z,80.10
2019-03-28T08:48:54.671Z,80.56
2019-03-28T08:51:27.529Z,78.92
2019-03-28T08:53:58.521Z,78.52
2019-03-28T08:56:29.625Z,77.07
2019-03-28T08:59:01.054Z,74.90
2019-03-28T09:01:32.050Z,74.47
2019-03-28T09:04:03.199Z,72.72
2019-03-28T09:06:34.293Z,73.81
2019-03-28T09:09:07.262Z,71.39
2019-03-28T09:11:38.770Z,72.16
2019-03-28T09:14:09.762Z,71.43
2019-03-28T09:16:40.852Z,71.74
2019-03-28T09:19:11.886Z,70.86
2019-03-28T09:21:44.143Z,70.37
2019-03-28T09:24:15.490Z,69.83
2019-03-28T09:26:46.509Z,71.20
2019-03-28T09:29:17.821Z,69.60
2019-03-28T09:31:48.910Z,68.45
2019-03-28T09:34:19.956Z,67.53
2019-03-28T09:36:50.937Z,66.43
2019-03-28T09:39:24.707Z,66.18
2019-03-28T09:41:54.714Z,64.65
2019-03-28T09:44:25.689Z,63.81
2019-03-28T09:46:56.711Z,64.24
2019-03-28T09:49:27.694Z,64.41
2019-03-28T09:51:58.681Z,64.99
2019-03-28T09:54:29.686Z,64.46
2019-03-28T09:57:00.726Z,64.21
2019-03-28T09:59:31.770Z,63.10
2019-03-28T10:02:03.050Z,62.15
2019-03-28T10:04:34.094Z,62.72
2019-03-28T10:07:05.674Z,63.33
2019-03-28T10:09:38.008Z,61.22
2019-03-28T10:12:09.205Z,61.29
2019-03-28T10:14:40.498Z,61.71
2019-03-28T10:17:11.841Z,60.76
2019-03-28T10:19:43.268Z,63.42
2019-03-28T10:22:14.266Z,60.96
2019-03-28T10:24:45.527Z,61.60
2019-03-28T10:27:19.184Z,61.54
2019-03-28T10:29:49.574Z,61.68
2019-03-28T10:32:20.600Z,62.19
2019-03-28T10:34:51.615Z,63.69
2019-03-28T10:37:22.593Z,60.85
2019-03-28T10:39:53.589Z,59.38
2019-03-28T10:42:24.621Z,58.96
2019-03-28T10:44:55.656Z,59.04
2019-03-28T10:47:27.301Z,60.95
2019-03-28T10:49:59.476Z,62.21
2019-03-28T10:52:30.481Z,60.52
2019-03-28T10:55:01.458Z,60.77
2019-03-28T10:57:32.618Z,59.49
2019-03-28T11:00:04.000Z,61.42
2019-03-28T11:02:35.344Z,60.72
2019-03-28T11:05:06.789Z,58.95
2019-03-28T11:07:38.141Z,59.72
2019-03-28T11:10:09.188Z,59.67
2019-03-28T11:12:40.163Z,60.65
2019-03-28T11:15:11.451Z,62.09
2019-03-28T11:17:42.456Z,62.12
2019-03-28T11:20:13.432Z,62.05
2019-03-28T11:22:44.734Z,63.23
2019-03-28T11:25:15.709Z,62.65
2019-03-28T11:27:47.112Z,60.98
2019-03-28T11:30:19.438Z,61.62
2019-03-28T11:32:50.413Z,62.18
2019-03-28T11:35:21.818Z,63.65
2019-03-28T11:37:53.208Z,62.61
2019-03-28T11:40:24.621Z,63.30
2019-03-28T11:42:55.677Z,63.20
2019-03-28T11:45:27.271Z,63.14
2019-03-28T11:47:58.249Z,62.86
2019-03-28T11:50:29.225Z,63.69
2019-03-28T11:53:00.229Z,61.34
2019-03-28T11:55:31.210Z,59.63
2019-03-28T11:58:02.233Z,61.45
2019-03-28T12:00:33.213Z,61.02
2019-03-28T12:03:04.191Z,62.95
2019-03-28T12:05:35.237Z,62.82
2019-03-28T12:08:06.235Z,63.53
2019-03-28T12:10:37.204Z,64.99
2019-03-28T12:13:08.204Z,63.46
2019-03-28T12:15:39.197Z,63.54
2019-03-28T12:18:10.198Z,63.61
2019-03-28T12:20:41.559Z,64.94
2019-03-28T12:23:12.937Z,65.20
2019-03-28T12:25:47.159Z,65.00
2019-03-28T12:28:16.763Z,64.61
2019-03-28T12:30:47.750Z,64.75
2019-03-28T12:33:18.737Z,64.77
2019-03-28T12:35:50.098Z,65.48
2019-03-28T12:38:21.453Z,63.10
2019-03-28T12:40:52.956Z,62.98
2019-03-28T12:43:23.988Z,63.79
2019-03-28T12:45:54.993Z,64.23
2019-03-28T12:48:25.977Z,64.45
2019-03-28T12:50:59.132Z,64.33
2019-03-28T12:53:30.217Z,63.80
2019-03-28T12:56:01.577Z,62.98
2019-03-28T12:58:32.540Z,64.00
2019-03-28T13:01:03.533Z,63.14
2019-03-28T13:03:44.775Z,63.65
2019-03-28T13:06:07.250Z,63.22
2019-03-28T13:08:38.221Z,63.68
2019-03-28T13:11:09.262Z,64.85
2019-03-28T13:13:40.233Z,64.38
2019-03-28T13:16:11.610Z,64.44
2019-03-28T13:18:43.819Z,63.37
2019-03-28T13:21:14.794Z,63.25
2019-03-28T13:23:45.765Z,63.51
2019-03-28T13:26:17.149Z,64.86
2019-03-28T13:28:48.143Z,63.96
2019-03-28T13:31:19.185Z,63.67
2019-03-28T13:33:50.162Z,63.13
2019-03-28T13:36:22.104Z,63.50
2019-03-28T13:38:54.517Z,64.23
2019-03-28T13:41:25.501Z,65.64
2019-03-28T13:43:56.754Z,66.69
2019-03-28T13:46:27.981Z,64.83
2019-03-28T13:48:58.967Z,64.67
2019-03-28T13:51:29.946Z,64.58
2019-03-28T13:54:00.978Z,65.00
2019-03-28T13:56:31.981Z,63.74
2019-03-28T13:59:02.961Z,64.06
2019-03-28T14:01:33.961Z,64.66
2019-03-28T14:04:04.973Z,65.13
2019-03-28T14:06:35.961Z,63.71
2019-03-28T14:09:07.850Z,63.58
2019-03-28T14:11:39.486Z,63.33
2019-03-28T14:14:11.037Z,63.57
2019-03-28T14:16:42.394Z,63.12
2019-03-28T14:19:13.417Z,62.46
2019-03-28T14:21:44.692Z,63.14
2019-03-28T14:24:15.674Z,64.03
2019-03-28T14:26:46.706Z,64.08
2019-03-28T14:29:17.683Z,64.38
2019-03-28T14:31:48.705Z,64.82
2019-03-28T14:34:19.702Z,65.40
2019-03-28T14:36:50.679Z,66.34
2019-03-28T14:39:21.766Z,65.70
2019-03-28T14:41:53.132Z,65.63
2019-03-28T14:44:24.117Z,63.87
2019-03-28T14:46:55.127Z,63.67
2019-03-28T14:49:26.887Z,64.86
2019-03-28T14:51:57.896Z,65.09
2019-03-28T14:54:28.887Z,64.61
2019-03-28T14:57:00.962Z,63.86
2019-03-28T14:59:34.567Z,63.82
2019-03-28T15:02:05.673Z,64.34
2019-03-28T15:04:36.650Z,64.57
2019-03-28T15:07:08.068Z,63.65
2019-03-28T15:09:39.132Z,63.98
2019-03-28T15:12:10.989Z,63.47
2019-03-28T15:14:41.982Z,64.29
2019-03-28T15:17:12.964Z,64.29
2019-03-28T15:19:44.690Z,64.60
2019-03-28T15:22:15.694Z,63.72
2019-03-28T15:24:46.665Z,64.42
2019-03-28T15:27:17.705Z,64.34
2019-03-28T15:29:48.679Z,65.54
2019-03-28T15:32:19.650Z,65.68
2019-03-28T15:34:50.960Z,66.39
2019-03-28T15:37:22.210Z,66.43
2019-03-28T15:39:53.863Z,66.83
2019-03-28T15:42:27.793Z,66.49
2019-03-28T15:44:58.155Z,67.36
2019-03-28T15:47:29.198Z,67.30
2019-03-28T15:50:00.557Z,67.57
2019-03-28T15:52:31.960Z,67.32
2019-03-28T15:55:04.319Z,67.73
2019-03-28T15:57:35.306Z,68.58
2019-03-28T16:00:07.749Z,68.37
2019-03-28T16:02:38.776Z,68.37
2019-03-28T16:05:10.191Z,68.49
2019-03-28T16:07:41.187Z,68.40
2019-03-28T16:10:14.756Z,67.74
2019-03-28T16:12:45.669Z,67.90
2019-03-28T16:15:16.759Z,68.78
2019-03-28T16:17:47.836Z,67.60
2019-03-28T16:20:19.194Z,67.41
2019-03-28T16:22:50.543Z,67.24
2019-03-28T16:25:21.894Z,68.91
2019-03-28T16:27:53.278Z,69.11
2019-03-28T16:30:36.262Z,69.05
2019-03-28T16:33:08.110Z,69.26
2019-03-28T16:35:40.195Z,69.17
2019-03-28T16:38:11.186Z,68.97
2019-03-28T16:40:42.662Z,69.27
2019-03-28T16:43:14.041Z,68.87
2019-03-28T16:45:45.032Z,68.53
2019-03-28T16:48:16.043Z,68.70
2019-03-28T16:50:47.373Z,68.30
2019-03-28T16:53:18.725Z,68.54
2019-03-28T16:55:50.079Z,68.58
2019-03-28T16:58:21.131Z,68.60
2019-03-28T17:00:52.475Z,68.52
2019-03-28T17:03:23.926Z,68.39
2019-03-28T17:05:56.144Z,69.25
2019-03-28T17:08:29.215Z,69.33
2019-03-28T17:11:00.216Z,69.51
2019-03-28T17:13:31.241Z,69.65
2019-03-28T17:16:02.640Z,69.94
2019-03-28T17:18:33.688Z,70.27
2019-03-28T17:21:04.945Z,70.15
2019-03-28T17:23:36.270Z,70.33
2019-03-28T17:26:07.276Z,69.36
2019-03-28T17:28:38.285Z,69.67
2019-03-28T17:31:09.299Z,70.03
2019-03-28T17:33:40.286Z,70.20
2019-03-28T17:36:11.689Z,69.52
2019-03-28T17:38:42.684Z,69.52
2019-03-28T17:41:14.071Z,69.72
2019-03-28T17:43:45.086Z,69.82
2019-03-28T17:46:16.174Z,69.89
2019-03-28T17:48:47.522Z,70.15
2019-03-28T17:51:18.531Z,69.95
2019-03-28T17:53:49.558Z,70.39
2019-03-28T17:56:21.710Z,70.32
2019-03-28T17:58:55.619Z,70.51
2019-03-28T18:01:26.711Z,70.64
2019-03-28T18:03:58.738Z,70.15
2019-03-28T18:06:30.151Z,70.27
2019-03-28T18:09:03.174Z,70.52
2019-03-28T18:11:34.439Z,70.86
2019-03-28T18:14:05.739Z,71.60
2019-03-28T18:16:36.915Z,71.29
2019-03-28T18:19:08.403Z,71.01
2019-03-28T18:21:39.510Z,71.80
2019-03-28T18:24:11.055Z,71.78
2019-03-28T18:26:42.633Z,72.20
2019-03-28T18:29:14.600Z,72.91
2019-03-28T18:31:50.858Z,73.73
2019-03-28T18:34:18.935Z,73.23
2019-03-28T18:36:50.906Z,73.63
2019-03-28T18:39:22.192Z,73.47
2019-03-28T18:41:56.543Z,73.46
2019-03-28T18:44:26.718Z,73.64
2019-03-28T18:46:57.710Z,73.72
2019-03-28T18:49:28.902Z,74.09
2019-03-28T18:51:59.964Z,73.93
2019-03-28T18:54:31.061Z,73.84
2019-03-28T18:57:03.617Z,73.89
2019-03-28T18:59:34.609Z,73.93
2019-03-28T19:02:06.007Z,74.06
2019-03-28T19:04:37.394Z,74.23
2019-03-28T19:07:14.007Z,74.18
2019-03-28T19:09:45.945Z,74.30
2019-03-28T19:12:20.111Z,74.28
2019-03-28T19:14:52.530Z,74.37
2019-03-28T19:17:24.009Z,74.46
2019-03-28T19:19:55.406Z,74.46
2019-03-28T19:22:26.400Z,74.54
2019-03-28T19:24:57.427Z,74.55
2019-03-28T19:27:30.312Z,74.69
2019-03-28T19:30:02.122Z,74.61
2019-03-28T19:32:35.771Z,74.72
2019-03-28T19:35:08.420Z,74.78
2019-03-28T19:37:40.754Z,74.86
2019-03-28T19:40:12.604Z,74.94
2019-03-28T19:42:44.090Z,75.03
2019-03-28T19:45:19.359Z,75.04
2019-03-28T19:47:50.441Z,75.04
2019-03-28T19:50:29.585Z,75.15
2019-03-28T19:53:00.631Z,74.98
2019-03-28T19:55:32.183Z,74.92
2019-03-28T19:58:03.315Z,75.29
2019-03-28T20:00:34.451Z,75.17
2019-03-28T20:03:07.966Z,75.30
2019-03-28T20:05:47.683Z,75.31
2019-03-28T20:08:15.894Z,75.24
2019-03-28T20:10:45.007Z,75.10
2019-03-28T20:13:16.249Z,75.32
2019-03-28T20:15:47.303Z,75.89
2019-03-28T20:18:18.296Z,75.58
2019-03-28T20:20:49.387Z,76.19
2019-03-28T20:23:20.723Z,76.17
2019-03-28T20:25:52.792Z,76.07
2019-03-28T20:28:26.804Z,76.10
2019-03-28T20:30:57.162Z,76.49
2019-03-28T20:33:28.509Z,76.50
2019-03-28T20:36:18.902Z,76.43
2019-03-28T20:38:32.757Z,76.48
2019-03-28T20:41:05.812Z,76.45
2019-03-28T20:43:36.795Z,76.62
2019-03-28T20:46:08.545Z,76.74
2019-03-28T20:48:40.010Z,76.76
2019-03-28T20:51:11.279Z,76.69
2019-03-28T20:53:42.703Z,76.68
2019-03-28T20:56:14.872Z,76.54
2019-03-28T20:58:45.907Z,76.53
2019-03-28T21:01:17.783Z,76.41
2019-03-28T21:03:49.759Z,76.61
2019-03-28T21:06:21.435Z,76.77
2019-03-28T21:08:52.802Z,77.03
2019-03-28T21:11:23.817Z,77.28
2019-03-28T21:13:54.820Z,77.15
2019-03-28T21:16:26.239Z,77.01
2019-03-28T21:18:57.260Z,77.05
2019-03-28T21:21:29.101Z,77.18
2019-03-28T21:24:00.781Z,77.38
2019-03-28T21:26:31.791Z,77.38
2019-03-28T21:29:02.830Z,77.49
2019-03-28T21:31:33.827Z,77.55
2019-03-28T21:34:04.866Z,77.49
2019-03-28T21:36:36.271Z,77.28
2019-03-28T21:39:09.038Z,77.31
2019-03-28T21:41:40.363Z,77.52
2019-03-28T21:44:11.757Z,77.48
2019-03-28T21:46:42.812Z,77.89
2019-03-28T21:49:13.816Z,77.56
2019-03-28T21:51:45.973Z,77.63
2019-03-28T21:54:17.137Z,77.67
2019-03-28T21:56:48.301Z,77.79
2019-03-28T21:59:19.311Z,77.88
2019-03-28T22:01:50.312Z,78.07
2019-03-28T22:04:21.336Z,77.99
2019-03-28T22:06:52.727Z,78.15
2019-03-28T22:09:24.869Z,77.98
2019-03-28T22:12:00.623Z,78.09
2019-03-28T22:14:31.045Z,78.15
2019-03-28T22:17:02.952Z,78.78
2019-03-28T22:19:34.100Z,78.47
2019-03-28T22:22:05.195Z,78.53
2019-03-28T22:24:39.028Z,78.62
2019-03-28T22:27:09.144Z,78.65
2019-03-28T22:29:40.122Z,78.39
2019-03-28T22:32:11.848Z,78.44
2019-03-28T22:34:43.374Z,78.42
2019-03-28T22:37:14.367Z,78.40
2019-03-28T22:39:45.410Z,78.29
2019-03-28T22:42:16.391Z,78.28
2019-03-28T22:44:47.763Z,78.40
2019-03-28T22:47:18.790Z,78.59
2019-03-28T22:49:50.168Z,78.67
2019-03-28T22:52:21.498Z,78.79
2019-03-28T22:54:52.591Z,78.90
2019-03-28T22:57:23.623Z,79.17
2019-03-28T22:59:54.618Z,78.95
2019-03-28T23:02:25.610Z,79.09
2019-03-28T23:04:57.030Z,79.50
2019-03-28T23:07:28.015Z,79.26
2019-03-28T23:09:58.999Z,79.80
2019-03-28T23:12:30.020Z,79.60
2019-03-28T23:15:01.021Z,79.78
2019-03-28T23:17:32.538Z,79.97
2019-03-28T23:20:03.529Z,79.87
2019-03-28T23:22:34.513Z,80.31
2019-03-28T23:25:06.507Z,80.59
2019-03-28T23:27:37.492Z,80.53
2019-03-28T23:30:09.439Z,80.64
2019-03-28T23:32:40.803Z,80.59
2019-03-28T23:35:12.746Z,80.80
2019-03-28T23:37:43.894Z,81.51
2019-03-28T23:40:15.049Z,80.52
2019-03-28T23:42:46.320Z,80.49
2019-03-28T23:45:17.308Z,80.47
2019-03-28T23:47:48.377Z,80.50
2019-03-28T23:50:19.390Z,80.56
2019-03-28T23:52:50.479Z,80.63
2019-03-28T23:55:21.792Z,80.39
2019-03-28T23:57:52.782Z,80.32
